createdAt,value
2019-06-10T00:02:22.572Z,19.37
2019-06-10T00:04:51.881Z,19.37
2019-06-10T00:07:21.108Z,19.49
2019-06-10T00:09:51.078Z,19.59
2019-06-10T00:12:17.909Z,19.58
2019-06-10T00:14:45.497Z,19.50
2019-06-10T00:17:13.477Z,19.54
2019-06-10T00:19:41.108Z,19.44
2019-06-10T00:22:11.666Z,19.46
2019-06-10T00:24:37.985Z,19.57
2019-06-10T00:27:06.866Z,19.54
2019-06-10T00:29:34.693Z,19.51
2019-06-10T00:32:05.353Z,19.51
2019-06-10T00:34:34.367Z,19.53
2019-06-10T00:37:02.640Z,19.63
2019-06-10T00:39:32.249Z,19.52
2019-06-10T00:42:02.559Z,19.25
2019-06-10T00:44:31.092Z,19.27
2019-06-10T00:47:02.904Z,19.48
2019-06-10T00:49:31.632Z,19.52
2019-06-10T00:52:01.244Z,19.47
2019-06-10T00:54:31.034Z,19.49
2019-06-10T00:57:01.181Z,19.46
2019-06-10T00:59:31.068Z,19.38
2019-06-10T01:01:58.013Z,19.40
2019-06-10T01:04:26.493Z,19.19
2019-06-10T01:06:53.946Z,19.21
2019-06-10T01:09:21.826Z,19.27
2019-06-10T01:11:51.903Z,19.27
2019-06-10T01:14:21.468Z,19.03
2019-06-10T01:16:50.668Z,19.12
2019-06-10T01:19:17.993Z,19.26
2019-06-10T01:21:45.342Z,19.10
2019-06-10T01:24:14.855Z,19.08
2019-06-10T01:26:42.821Z,19.14
2019-06-10T01:29:12.319Z,19.38
2019-06-10T01:31:42.005Z,19.24
2019-06-10T01:34:11.979Z,19.38
2019-06-10T01:36:41.683Z,19.27
2019-06-10T01:39:11.600Z,19.14
2019-06-10T01:41:40.767Z,19.25
2019-06-10T01:44:08.463Z,19.25
2019-06-10T01:46:36.412Z,19.29
2019-06-10T01:49:03.863Z,19.21
2019-06-10T01:51:31.779Z,19.08
2019-06-10T01:54:01.331Z,18.91
2019-06-10T01:56:31.325Z,19.18
2019-06-10T01:58:58.706Z,19.26
2019-06-10T02:01:35.387Z,19.11
2019-06-10T02:04:02.746Z,19.05
2019-06-10T02:06:31.649Z,18.98
2019-06-10T02:09:05.440Z,19.14
2019-06-10T02:11:33.884Z,18.79
2019-06-10T02:14:01.935Z,19.02
2019-06-10T02:16:32.382Z,18.83
2019-06-10T02:19:01.444Z,18.90
2019-06-10T02:21:31.130Z,18.74
2019-06-10T02:24:01.018Z,18.53
2019-06-10T02:26:30.751Z,18.67
2019-06-10T02:28:57.791Z,18.95
2019-06-10T02:31:30.023Z,18.62
2019-06-10T02:33:54.653Z,18.76
2019-06-10T02:36:30.471Z,18.70
2019-06-10T02:38:53.911Z,18.62
2019-06-10T02:41:31.040Z,18.72
2019-06-10T02:43:53.178Z,18.34
2019-06-10T02:46:28.501Z,18.40
2019-06-10T02:48:49.464Z,18.40
2019-06-10T02:51:18.195Z,18.33
2019-06-10T02:53:46.314Z,18.55
2019-06-10T02:56:14.928Z,18.45
2019-06-10T02:58:44.970Z,18.63
2019-06-10T03:01:15.267Z,18.45
2019-06-10T03:03:45.563Z,18.12
2019-06-10T03:06:14.423Z,18.28
2019-06-10T03:08:43.808Z,18.30
2019-06-10T03:11:13.736Z,18.46
2019-06-10T03:13:39.776Z,18.52
2019-06-10T03:16:25.819Z,18.69
2019-06-10T03:18:53.852Z,18.28
2019-06-10T03:21:24.359Z,18.37
2019-06-10T03:23:52.995Z,18.13
2019-06-10T03:26:21.900Z,18.30
2019-06-10T03:28:51.922Z,18.21
2019-06-10T03:31:22.078Z,18.43
2019-06-10T03:33:48.306Z,18.29
2019-06-10T03:36:16.248Z,18.43
2019-06-10T03:38:44.016Z,18.51
2019-06-10T03:41:12.465Z,18.58
2019-06-10T03:43:42.673Z,18.42
2019-06-10T03:46:13.354Z,18.07
2019-06-10T03:48:43.074Z,18.10
2019-06-10T03:51:09.620Z,18.46
2019-06-10T03:53:37.080Z,18.18
2019-06-10T03:56:04.947Z,18.10
2019-06-10T03:58:34.148Z,18.32
2019-06-10T04:01:03.215Z,18.22
2019-06-10T04:03:33.530Z,18.56
2019-06-10T04:06:02.422Z,18.60
2019-06-10T04:08:29.708Z,18.45
2019-06-10T04:10:57.584Z,18.61
2019-06-10T04:13:25.846Z,18.80
2019-06-10T04:15:57.428Z,18.39
2019-06-10T04:18:26.577Z,18.68
2019-06-10T04:20:54.297Z,18.43
2019-06-10T04:23:23.810Z,18.78
2019-06-10T04:25:52.683Z,18.77
2019-06-10T04:28:20.228Z,19.04
2019-06-10T04:30:48.269Z,18.95
2019-06-10T04:33:15.648Z,19.15
2019-06-10T04:35:44.552Z,19.00
2019-06-10T04:38:13.134Z,18.73
2019-06-10T04:40:42.958Z,18.37
2019-06-10T04:43:12.361Z,18.24
2019-06-10T04:45:39.696Z,18.50
2019-06-10T04:48:06.952Z,18.74
2019-06-10T04:50:42.194Z,19.33
2019-06-10T04:53:03.933Z,19.39
2019-06-10T04:55:32.632Z,18.65
2019-06-10T04:58:02.449Z,18.81
2019-06-10T05:00:30.397Z,18.52
2019-06-10T05:02:59.172Z,18.83
2019-06-10T05:05:27.253Z,18.80
2019-06-10T05:07:57.665Z,18.83
2019-06-10T05:10:27.069Z,19.05
2019-06-10T05:12:55.258Z,19.20
2019-06-10T05:15:26.254Z,19.56
2019-06-10T05:17:52.699Z,19.99
2019-06-10T05:20:20.261Z,19.63
2019-06-10T05:22:47.940Z,19.83
2019-06-10T05:25:15.716Z,20.12
2019-06-10T05:27:43.273Z,20.27
2019-06-10T05:30:12.390Z,20.19
2019-06-10T05:32:43.218Z,20.35
2019-06-10T05:35:14.954Z,20.44
2019-06-10T05:37:42.498Z,19.89
2019-06-10T05:40:12.752Z,19.83
2019-06-10T05:42:42.602Z,19.92
2019-06-10T05:45:12.145Z,19.71
2019-06-10T05:47:39.517Z,19.62
2019-06-10T05:50:07.173Z,19.46
2019-06-10T05:52:35.163Z,19.07
2019-06-10T05:55:03.052Z,19.14
2019-06-10T05:57:33.517Z,19.39
2019-06-10T06:00:02.997Z,19.17
2019-06-10T06:02:29.880Z,19.31
2019-06-10T06:04:57.654Z,19.02
2019-06-10T06:07:25.036Z,18.91
2019-06-10T06:09:53.275Z,18.88
2019-06-10T06:12:22.630Z,19.53
2019-06-10T06:14:52.772Z,19.78
2019-06-10T06:17:20.272Z,19.74
2019-06-10T06:19:47.639Z,19.54
2019-06-10T06:22:14.981Z,20.10
2019-06-10T06:24:43.662Z,20.60
2019-06-10T06:27:13.068Z,20.38
2019-06-10T06:29:42.960Z,21.02
2019-06-10T06:32:09.870Z,21.57
2019-06-10T06:34:38.799Z,22.20
2019-06-10T06:37:06.181Z,21.84
2019-06-10T06:39:35.110Z,21.62
2019-06-10T06:42:03.374Z,22.09
2019-06-10T06:44:33.047Z,20.87
2019-06-10T06:47:02.609Z,22.55
2019-06-10T06:49:32.434Z,22.51
2019-06-10T06:52:02.768Z,23.65
2019-06-10T06:54:30.490Z,23.46
2019-06-10T06:56:59.425Z,23.66
2019-06-10T06:59:29.246Z,23.61
2019-06-10T07:01:57.554Z,22.42
2019-06-10T07:04:25.521Z,22.00
2019-06-10T07:06:55.739Z,22.46
2019-06-10T07:09:23.717Z,22.40
2019-06-10T07:11:52.994Z,22.48
2019-06-10T07:14:20.386Z,23.94
2019-06-10T07:16:52.799Z,24.62
2019-06-10T07:19:22.508Z,22.95
2019-06-10T07:22:07.491Z,22.69
2019-06-10T07:24:18.607Z,23.36
2019-06-10T07:26:53.985Z,22.40
2019-06-10T07:29:15.759Z,22.72
2019-06-10T07:31:49.994Z,23.22
2019-06-10T07:34:16.009Z,23.11
2019-06-10T07:36:45.479Z,23.09
2019-06-10T07:39:13.504Z,23.48
2019-06-10T07:41:45.159Z,25.10
2019-06-10T07:44:12.479Z,26.28
2019-06-10T07:46:43.723Z,25.99
2019-06-10T07:49:09.866Z,25.84
2019-06-10T07:51:37.630Z,24.50
2019-06-10T07:54:05.121Z,24.79
2019-06-10T07:56:38.227Z,25.60
2019-06-10T07:59:03.923Z,25.91
2019-06-10T08:01:33.269Z,26.40
2019-06-10T08:04:03.125Z,26.81
2019-06-10T08:06:33.499Z,25.90
2019-06-10T08:09:02.427Z,26.90
2019-06-10T08:11:33.245Z,24.87
2019-06-10T08:14:04.597Z,27.58
2019-06-10T08:16:32.583Z,27.09
2019-06-10T08:19:22.222Z,27.54
2019-06-10T08:21:28.887Z,23.98
2019-06-10T08:23:56.402Z,25.55
2019-06-10T08:26:24.133Z,25.74
2019-06-10T08:28:53.083Z,25.17
2019-06-10T08:31:22.617Z,26.09
2019-06-10T08:33:50.107Z,27.40
2019-06-10T08:36:17.562Z,25.74
2019-06-10T08:38:48.276Z,25.34
2019-06-10T08:41:16.778Z,26.17
2019-06-10T08:43:45.597Z,27.64
2019-06-10T08:46:13.983Z,28.81
2019-06-10T08:48:43.834Z,26.70
2019-06-10T08:51:12.527Z,25.53
2019-06-10T08:53:44.095Z,27.53
2019-06-10T08:56:12.806Z,26.37
2019-06-10T08:58:40.307Z,27.27
2019-06-10T09:01:09.486Z,27.39
2019-06-10T09:03:38.537Z,27.42
2019-06-10T09:06:06.301Z,27.32
2019-06-10T09:08:33.655Z,26.25
2019-06-10T09:11:02.395Z,26.25
2019-06-10T09:13:31.254Z,27.45
2019-06-10T09:16:10.782Z,28.15
2019-06-10T09:18:29.571Z,28.97
2019-06-10T09:20:57.086Z,28.92
2019-06-10T09:23:25.610Z,27.91
2019-06-10T09:25:57.327Z,28.72
2019-06-10T09:28:23.511Z,26.57
2019-06-10T09:30:58.317Z,26.48
2019-06-10T09:33:22.586Z,26.89
2019-06-10T09:35:54.504Z,25.00
2019-06-10T09:38:22.198Z,25.45
2019-06-10T09:40:59.818Z,26.27
2019-06-10T09:43:22.582Z,26.86
2019-06-10T09:45:55.291Z,26.86
2019-06-10T09:48:22.939Z,25.19
2019-06-10T09:50:57.510Z,25.97
2019-06-10T09:53:32.088Z,26.58
2019-06-10T09:55:54.880Z,26.91
2019-06-10T09:58:19.769Z,27.14
2019-06-10T10:00:52.612Z,26.28
2019-06-10T10:03:23.216Z,27.18
2019-06-10T10:05:59.329Z,28.63
2019-06-10T10:08:19.576Z,28.68
2019-06-10T10:10:50.122Z,27.00
2019-06-10T10:13:16.317Z,27.03
2019-06-10T10:15:44.105Z,28.43
2019-06-10T10:18:13.438Z,29.09
2019-06-10T10:20:44.847Z,27.92
2019-06-10T10:23:13.674Z,27.84
2019-06-10T10:25:43.318Z,29.16
2019-06-10T10:28:09.600Z,28.13
2019-06-10T10:30:37.579Z,26.86
2019-06-10T10:33:05.174Z,26.61
2019-06-10T10:35:34.328Z,26.56
2019-06-10T10:38:03.859Z,27.04
2019-06-10T10:40:32.662Z,27.32
2019-06-10T10:43:22.415Z,28.28
2019-06-10T10:45:32.818Z,27.00
2019-06-10T10:48:02.583Z,28.35
2019-06-10T10:50:30.552Z,28.27
2019-06-10T10:52:58.425Z,28.10
2019-06-10T10:55:25.898Z,28.61
2019-06-10T10:57:55.734Z,28.17
2019-06-10T11:00:24.219Z,27.93
2019-06-10T11:02:53.073Z,27.29
2019-06-10T11:05:34.440Z,27.82
2019-06-10T11:08:04.364Z,28.61
2019-06-10T11:10:33.660Z,28.59
2019-06-10T11:13:06.811Z,26.75
2019-06-10T11:15:35.568Z,27.48
2019-06-10T11:18:05.651Z,29.61
2019-06-10T11:20:33.946Z,29.38
2019-06-10T11:23:02.942Z,29.31
2019-06-10T11:25:33.061Z,29.19
2019-06-10T11:27:59.908Z,28.20
2019-06-10T11:30:28.560Z,26.78
2019-06-10T11:32:58.325Z,27.52
2019-06-10T11:35:25.460Z,27.94
2019-06-10T11:37:54.047Z,28.01
2019-06-10T11:40:22.573Z,28.14
2019-06-10T11:42:50.529Z,29.49
2019-06-10T11:45:22.201Z,30.48
2019-06-10T11:48:02.357Z,29.17
2019-06-10T11:50:44.880Z,29.55
2019-06-10T11:53:12.948Z,29.65
2019-06-10T11:55:42.349Z,29.77
2019-06-10T11:58:09.674Z,28.73
2019-06-10T12:00:42.694Z,27.27
2019-06-10T12:03:10.282Z,27.45
2019-06-10T12:05:37.617Z,28.66
2019-06-10T12:08:05.286Z,27.87
2019-06-10T12:10:33.261Z,28.04
2019-06-10T12:13:06.200Z,27.84
2019-06-10T12:15:40.836Z,29.18
2019-06-10T12:18:07.893Z,30.50
2019-06-10T12:20:30.116Z,30.61
2019-06-10T12:22:58.804Z,30.50
2019-06-10T12:25:35.678Z,30.12
2019-06-10T12:28:01.224Z,28.03
2019-06-10T12:30:27.555Z,28.58
2019-06-10T12:32:58.741Z,28.56
2019-06-10T12:35:24.202Z,29.34
2019-06-10T12:37:55.895Z,29.28
2019-06-10T12:40:21.270Z,28.62
2019-06-10T12:42:49.129Z,28.38
2019-06-10T12:45:16.782Z,27.78
2019-06-10T12:47:45.145Z,27.95
2019-06-10T12:50:13.306Z,26.94
2019-06-10T12:52:41.349Z,27.19
2019-06-10T12:55:09.411Z,26.42
2019-06-10T12:57:38.897Z,27.86
2019-06-10T13:00:19.669Z,27.30
2019-06-10T13:02:37.181Z,27.58
2019-06-10T13:05:06.948Z,27.48
2019-06-10T13:07:36.517Z,28.64
2019-06-10T13:10:05.120Z,27.05
2019-06-10T13:12:33.303Z,27.28
2019-06-10T13:15:05.000Z,28.42
2019-06-10T13:17:30.350Z,29.03
2019-06-10T13:19:59.227Z,27.98
2019-06-10T13:22:27.817Z,27.70
2019-06-10T13:24:56.393Z,26.96
2019-06-10T13:27:24.277Z,28.26
2019-06-10T13:29:53.882Z,29.50
2019-06-10T13:32:21.184Z,29.42
2019-06-10T13:34:48.468Z,27.86
2019-06-10T13:37:16.297Z,27.86
2019-06-10T13:39:44.314Z,29.29
2019-06-10T13:42:13.626Z,28.23
2019-06-10T13:44:42.746Z,28.97
2019-06-10T13:47:14.619Z,29.00
2019-06-10T13:49:42.874Z,28.77
2019-06-10T13:52:16.294Z,29.38
2019-06-10T13:54:41.987Z,28.66
2019-06-10T13:57:11.646Z,27.86
2019-06-10T13:59:39.034Z,27.32
2019-06-10T14:02:10.239Z,28.64
2019-06-10T14:04:36.323Z,27.21
2019-06-10T14:07:07.241Z,28.11
2019-06-10T14:09:33.670Z,28.72
2019-06-10T14:12:02.011Z,26.92
2019-06-10T14:14:33.603Z,27.63
2019-06-10T14:17:01.243Z,28.04
2019-06-10T14:19:29.130Z,26.87
2019-06-10T14:21:56.483Z,27.45
2019-06-10T14:24:23.943Z,27.65
2019-06-10T14:26:53.152Z,27.21
2019-06-10T14:29:20.493Z,26.90
2019-06-10T14:31:48.656Z,26.97
2019-06-10T14:34:18.816Z,26.43
2019-06-10T14:36:46.895Z,27.06
2019-06-10T14:39:15.932Z,27.08
2019-06-10T14:41:43.525Z,28.20
2019-06-10T14:44:14.225Z,28.35
2019-06-10T14:46:42.496Z,28.73
2019-06-10T14:49:11.472Z,27.64
2019-06-10T14:51:43.161Z,27.24
2019-06-10T14:54:11.363Z,26.96
2019-06-10T14:56:50.688Z,27.43
2019-06-10T14:59:22.262Z,26.75
2019-06-10T15:01:49.273Z,27.53
2019-06-10T15:04:18.328Z,26.95
2019-06-10T15:06:46.741Z,27.49
2019-06-10T15:09:14.135Z,27.58
2019-06-10T15:11:42.816Z,28.13
2019-06-10T15:14:12.856Z,27.84
2019-06-10T15:16:39.587Z,26.99
2019-06-10T15:19:14.549Z,26.16
2019-06-10T15:21:36.350Z,26.01
2019-06-10T15:24:05.431Z,26.80
2019-06-10T15:26:32.908Z,27.37
2019-06-10T15:29:02.756Z,26.35
2019-06-10T15:31:30.548Z,25.78
2019-06-10T15:33:58.342Z,26.68
2019-06-10T15:36:27.183Z,26.57
2019-06-10T15:38:55.091Z,26.17
2019-06-10T15:41:24.684Z,25.62
2019-06-10T15:43:53.184Z,25.88
2019-06-10T15:46:20.974Z,26.22
2019-06-10T15:48:48.515Z,25.70
2019-06-10T15:51:19.182Z,25.82
2019-06-10T15:53:46.422Z,26.06
2019-06-10T15:56:25.080Z,25.92
2019-06-10T15:58:43.464Z,25.74
2019-06-10T16:01:14.566Z,25.41
2019-06-10T16:03:42.382Z,25.41
2019-06-10T16:06:10.024Z,25.32
2019-06-10T16:08:37.752Z,25.32
2019-06-10T16:11:05.668Z,25.12
2019-06-10T16:13:33.123Z,25.10
2019-06-10T16:16:03.378Z,24.99
2019-06-10T16:18:32.733Z,25.19
2019-06-10T16:20:59.734Z,25.97
2019-06-10T16:23:27.052Z,25.97
2019-06-10T16:25:54.514Z,25.38
2019-06-10T16:28:23.485Z,25.63
2019-06-10T16:30:53.822Z,25.60
2019-06-10T16:33:24.072Z,25.73
2019-06-10T16:35:50.567Z,25.60
2019-06-10T16:38:19.107Z,25.76
2019-06-10T16:40:46.631Z,25.40
2019-06-10T16:43:13.880Z,25.61
2019-06-10T16:45:43.276Z,25.61
2019-06-10T16:48:13.041Z,25.35
2019-06-10T16:50:42.465Z,25.29
2019-06-10T16:53:10.163Z,25.29
2019-06-10T16:55:38.616Z,25.39
2019-06-10T16:58:08.645Z,25.57
2019-06-10T17:00:36.112Z,25.63
2019-06-10T17:03:04.900Z,25.23
2019-06-10T17:05:33.155Z,25.52
2019-06-10T17:08:03.272Z,25.25
2019-06-10T17:10:34.216Z,25.24
2019-06-10T17:13:05.487Z,25.33
2019-06-10T17:15:33.036Z,25.12
2019-06-10T17:18:02.675Z,24.98
2019-06-10T17:20:29.879Z,24.77
2019-06-10T17:22:59.512Z,24.16
2019-06-10T17:25:28.039Z,24.20
2019-06-10T17:27:57.812Z,24.03
2019-06-10T17:30:27.209Z,24.18
2019-06-10T17:32:55.256Z,23.89
2019-06-10T17:35:22.734Z,23.95
2019-06-10T17:37:52.289Z,23.94
2019-06-10T17:40:21.064Z,23.63
2019-06-10T17:42:49.221Z,23.71
2019-06-10T17:45:17.277Z,24.02
2019-06-10T17:47:44.761Z,24.13
2019-06-10T17:50:12.741Z,23.98
2019-06-10T17:52:42.573Z,23.93
2019-06-10T17:55:12.609Z,24.03
2019-06-10T17:57:42.831Z,24.26
2019-06-10T18:00:12.207Z,24.76
2019-06-10T18:02:39.752Z,24.26
2019-06-10T18:05:07.813Z,24.42
2019-06-10T18:07:35.813Z,24.41
2019-06-10T18:10:04.246Z,24.04
2019-06-10T18:12:33.932Z,24.18
2019-06-10T18:15:03.357Z,24.09
2019-06-10T18:17:31.216Z,23.74
2019-06-10T18:20:02.649Z,23.19
2019-06-10T18:22:30.601Z,22.94
2019-06-10T18:24:58.509Z,21.28
2019-06-10T18:27:26.946Z,21.19
2019-06-10T18:29:56.185Z,20.51
2019-06-10T18:32:23.642Z,20.70
2019-06-10T18:34:52.087Z,20.26
2019-06-10T18:37:19.581Z,20.38
2019-06-10T18:39:52.208Z,19.89
2019-06-10T18:42:19.637Z,19.70
2019-06-10T18:44:47.078Z,19.54
2019-06-10T18:47:14.525Z,19.20
2019-06-10T18:49:43.735Z,19.63
2019-06-10T18:52:12.712Z,19.24
2019-06-10T18:54:43.506Z,19.22
2019-06-10T18:57:11.169Z,18.91
2019-06-10T18:59:39.914Z,18.84
2019-06-10T19:02:07.674Z,19.35
2019-06-10T19:04:37.983Z,19.21
2019-06-10T19:07:05.094Z,19.51
2019-06-10T19:09:35.879Z,19.69
2019-06-10T19:12:02.853Z,19.59
2019-06-10T19:14:33.584Z,19.77
2019-06-10T19:17:03.023Z,19.85
2019-06-10T19:19:31.788Z,19.81
2019-06-10T19:22:08.190Z,19.89
2019-06-10T19:24:30.297Z,19.66
2019-06-10T19:27:01.957Z,19.61
2019-06-10T19:29:35.960Z,19.62
2019-06-10T19:31:57.091Z,19.46
2019-06-10T19:34:25.574Z,19.27
2019-06-10T19:36:53.044Z,19.34
2019-06-10T19:39:22.281Z,19.54
2019-06-10T19:41:49.902Z,19.29
2019-06-10T19:44:17.261Z,19.21
2019-06-10T19:46:45.011Z,19.33
2019-06-10T19:49:13.412Z,19.26
2019-06-10T19:51:44.066Z,19.20
2019-06-10T19:54:12.807Z,19.17
2019-06-10T19:56:41.697Z,19.36
2019-06-10T19:59:09.412Z,19.49
2019-06-10T20:01:38.980Z,19.44
2019-06-10T20:04:06.753Z,19.22
2019-06-10T20:06:34.304Z,19.04
2019-06-10T20:09:04.739Z,18.98
2019-06-10T20:11:32.536Z,19.01
2019-06-10T20:14:02.384Z,19.08
2019-06-10T20:16:29.047Z,19.12
2019-06-10T20:18:56.514Z,19.28
2019-06-10T20:21:23.943Z,19.20
2019-06-10T20:23:53.062Z,19.37
2019-06-10T20:26:22.547Z,19.19
2019-06-10T20:28:55.414Z,19.38
2019-06-10T20:31:24.052Z,19.55
2019-06-10T20:33:52.338Z,19.42
2019-06-10T20:36:23.372Z,19.43
2019-06-10T20:38:51.223Z,19.23
2019-06-10T20:41:19.967Z,19.44
2019-06-10T20:43:47.436Z,19.25
2019-06-10T20:46:14.951Z,19.24
2019-06-10T20:48:45.496Z,19.28
2019-06-10T20:51:12.875Z,19.10
2019-06-10T20:53:42.757Z,19.34
2019-06-10T20:56:12.452Z,19.36
2019-06-10T20:58:43.389Z,19.38
2019-06-10T21:01:10.449Z,19.27
2019-06-10T21:03:39.005Z,19.20
2019-06-10T21:06:08.229Z,19.32
2019-06-10T21:08:36.227Z,19.34
2019-06-10T21:11:03.675Z,19.19
2019-06-10T21:13:33.005Z,19.26
2019-06-10T21:16:02.912Z,19.03
2019-06-10T21:18:32.710Z,18.93
2019-06-10T21:20:59.393Z,19.05
2019-06-10T21:23:27.253Z,18.74
2019-06-10T21:25:54.653Z,18.96
2019-06-10T21:28:22.213Z,18.91
2019-06-10T21:30:54.936Z,18.57
2019-06-10T21:33:20.302Z,18.40
2019-06-10T21:35:48.955Z,18.51
2019-06-10T21:38:18.854Z,18.81
2019-06-10T21:40:48.068Z,18.92
2019-06-10T21:43:15.584Z,18.65
2019-06-10T21:45:49.170Z,18.65
2019-06-10T21:48:12.861Z,18.45
2019-06-10T21:50:40.201Z,18.43
2019-06-10T21:53:07.681Z,18.53
2019-06-10T21:55:34.945Z,18.56
2019-06-10T21:58:03.837Z,18.59
2019-06-10T22:00:53.886Z,18.41
2019-06-10T22:03:12.736Z,18.58
2019-06-10T22:05:42.850Z,18.28
2019-06-10T22:08:12.535Z,18.43
2019-06-10T22:10:42.542Z,18.24
2019-06-10T22:13:09.632Z,18.37
2019-06-10T22:15:36.984Z,18.24
2019-06-10T22:18:04.323Z,18.31
2019-06-10T22:20:32.580Z,18.40
2019-06-10T22:23:02.793Z,18.61
2019-06-10T22:25:32.660Z,18.53
2019-06-10T22:28:02.989Z,18.51
2019-06-10T22:30:32.160Z,18.26
2019-06-10T22:33:03.047Z,17.99
2019-06-10T22:35:33.141Z,18.18
2019-06-10T22:38:02.598Z,18.44
2019-06-10T22:40:32.672Z,18.49
2019-06-10T22:43:03.035Z,18.53
2019-06-10T22:45:32.364Z,18.56
2019-06-10T22:48:02.767Z,18.71
2019-06-10T22:50:32.117Z,18.74
2019-06-10T22:52:59.729Z,18.72
2019-06-10T22:55:27.665Z,18.74
2019-06-10T22:57:59.071Z,18.69
2019-06-10T23:00:24.718Z,18.69
2019-06-10T23:02:54.637Z,18.42
2019-06-10T23:05:23.213Z,18.50
2019-06-10T23:07:53.310Z,18.32
2019-06-10T23:10:22.707Z,18.45
2019-06-10T23:12:51.291Z,18.19
2019-06-10T23:15:19.749Z,18.01
2019-06-10T23:17:48.884Z,18.06
2019-06-10T23:20:17.270Z,17.82
2019-06-10T23:22:44.831Z,18.01
2019-06-10T23:25:12.951Z,18.08
2019-06-10T23:27:44.186Z,18.19
2019-06-10T23:30:11.754Z,18.16
2019-06-10T23:32:39.272Z,18.04
2019-06-10T23:35:07.342Z,17.92
2019-06-10T23:37:34.802Z,17.78
2019-06-10T23:40:04.574Z,17.80
2019-06-10T23:42:32.292Z,17.68
2019-06-10T23:45:04.745Z,17.67
2019-06-10T23:47:29.597Z,17.49
2019-06-10T23:49:57.657Z,17.34
2019-06-10T23:52:25.351Z,17.31
2019-06-10T23:54:54.401Z,17.18
2019-06-10T23:57:22.458Z,17.54
2019-06-10T23:59:52.062Z,17.58
